Time;durP1;ratioP1;P1;durP2;ratioP2;P2;SDS_P1;SDS_P2;PMS_P1;PMS_P2;Temp;Humidity;BMP_temperature;BMP_pressure;BME280_temperature;BME280_humidity;BME280_pressure;Samples;Min_cycle;Max_cycle;Signal;HPM_P1;HPM_P2
2023/09/10 00:00:40;;;;;;;60.47;54.20;;;18.00;91.30;;;;;;5037855;28;20132;-66
2023/09/10 00:03:06;;;;;;;59.20;52.80;;;18.00;91.40;;;;;;5033038;28;20037;-66
2023/09/10 00:05:32;;;;;;;54.50;48.70;;;18.00;91.80;;;;;;5033968;28;20146;-66
2023/09/10 00:08:00;;;;;;;58.27;52.37;;;18.00;91.70;;;;;;5030772;28;20042;-66
2023/09/10 00:10:26;;;;;;;51.07;45.77;;;18.00;91.70;;;;;;5038475;28;20476;-66
2023/09/10 00:12:52;;;;;;;51.27;45.97;;;18.00;91.70;;;;;;5048856;28;20294;-66
2023/09/10 00:15:18;;;;;;;52.73;47.17;;;17.90;91.70;;;;;;5039328;28;20674;-66
2023/09/10 00:17:44;;;;;;;54.33;48.57;;;17.90;91.80;;;;;;5037569;28;20110;-66
2023/09/10 00:20:10;;;;;;;57.23;51.23;;;17.90;91.80;;;;;;5037331;28;20041;-66
2023/09/10 00:22:37;;;;;;;54.53;48.90;;;17.90;92.00;;;;;;5024475;28;20085;-66
2023/09/10 00:25:04;;;;;;;48.90;43.67;;;17.90;92.00;;;;;;5076811;28;20936;-66
2023/09/10 00:27:30;;;;;;;53.03;47.40;;;17.90;92.00;;;;;;5019317;28;20290;-66
2023/09/10 00:29:56;;;;;;;49.60;44.23;;;17.90;92.20;;;;;;5040817;28;20651;-66
2023/09/10 00:32:22;;;;;;;51.63;46.03;;;17.90;92.20;;;;;;5038566;28;20037;-66
2023/09/10 00:34:47;;;;;;;55.80;49.80;;;17.90;92.40;;;;;;5026276;28;20044;-66
2023/09/10 00:37:16;;;;;;;54.37;48.63;;;17.90;92.40;;;;;;5023209;28;20042;-66
2023/09/10 00:39:42;;;;;;;50.87;45.50;;;17.90;92.40;;;;;;5021687;28;20492;-66
2023/09/10 00:42:09;;;;;;;48.27;43.43;;;17.80;92.40;;;;;;5047564;28;20287;-66
2023/09/10 00:44:38;;;;;;;48.90;43.70;;;17.80;92.40;;;;;;5049399;28;20305;-66
2023/09/10 00:47:04;;;;;;;47.20;42.17;;;17.80;92.40;;;;;;5074485;28;20283;-66
2023/09/10 00:49:31;;;;;;;52.37;46.80;;;17.80;92.50;;;;;;5040236;28;20300;-66
2023/09/10 00:52:00;;;;;;;48.67;43.33;;;17.70;92.40;;;;;;5033260;28;20330;-66
2023/09/10 00:54:30;;;;;;;53.60;47.87;;;17.70;92.40;;;;;;5036338;28;20056;-66
2023/09/10 00:56:56;;;;;;;53.17;47.77;;;17.70;92.70;;;;;;5034636;28;20688;-66
2023/09/10 00:59:23;;;;;;;51.73;46.33;;;17.60;92.80;;;;;;5049011;28;20362;-66
2023/09/10 01:01:49;;;;;;;48.93;43.53;;;17.60;92.90;;;;;;5049609;28;20790;-66
2023/09/10 01:04:16;;;;;;;47.93;42.90;;;17.60;92.80;;;;;;5033437;28;20301;-66
2023/09/10 01:06:42;;;;;;;46.83;41.93;;;17.60;92.90;;;;;;5033855;28;20647;-66
2023/09/10 01:09:08;;;;;;;56.43;50.73;;;17.60;93.10;;;;;;5044144;28;20306;-66
2023/09/10 01:11:36;;;;;;;49.70;44.40;;;17.60;93.00;;;;;;5049466;28;20037;-66
2023/09/10 01:14:17;;;;;;;50.03;44.37;;;17.50;93.10;;;;;;5046686;28;20048;-66
2023/09/10 01:17:02;;;;;;;52.80;47.17;;;17.50;93.30;;;;;;5015599;28;20295;-66
2023/09/10 01:19:52;;;;;;;49.78;43.95;;;17.50;93.30;;;;;;5031496;28;20366;-66
2023/09/10 01:22:55;;;;;;;49.70;44.30;;;17.50;93.40;;;;;;5037743;28;20050;-66
2023/09/10 01:25:21;;;;;;;50.47;44.97;;;17.40;93.40;;;;;;5044158;28;20292;-66
2023/09/10 01:27:47;;;;;;;47.40;42.23;;;17.40;93.30;;;;;;5044279;28;20306;-66
2023/09/10 01:30:13;;;;;;;48.77;43.57;;;17.40;93.20;;;;;;5057512;28;20299;-66
2023/09/10 01:32:45;;;;;;;54.87;48.90;;;17.30;93.20;;;;;;5039964;28;20116;-66
2023/09/10 01:35:25;;;;;;;47.60;42.43;;;17.30;93.20;;;;;;5031895;28;20488;-66
2023/09/10 01:38:01;;;;;;;47.97;41.27;;;17.20;93.30;;;;;;5044312;28;20394;-66
2023/09/10 01:40:34;;;;;;;53.30;47.80;;;17.20;93.50;;;;;;5048417;28;20310;-66
2023/09/10 01:43:03;;;;;;;50.23;45.00;;;17.20;93.80;;;;;;5047491;28;20346;-66
2023/09/10 01:45:30;;;;;;;46.47;41.43;;;17.10;93.70;;;;;;5031272;28;20292;-66
2023/09/10 01:47:56;;;;;;;47.83;42.93;;;17.10;93.80;;;;;;5044646;28;20307;-66
2023/09/10 01:50:22;;;;;;;50.10;44.90;;;17.10;93.90;;;;;;5042440;28;20620;-66
2023/09/10 01:52:48;;;;;;;48.10;43.00;;;17.10;93.90;;;;;;5042148;28;20037;-66
2023/09/10 01:55:13;;;;;;;50.63;45.30;;;17.10;94.00;;;;;;5025726;28;20064;-66
2023/09/10 01:57:39;;;;;;;51.13;45.80;;;17.10;94.20;;;;;;5042320;28;20041;-66
2023/09/10 02:00:08;;;;;;;51.43;46.17;;;17.10;94.20;;;;;;5048979;28;20041;-66
2023/09/10 02:02:33;;;;;;;51.83;46.33;;;17.10;94.10;;;;;;5030107;28;20036;-66
2023/09/10 02:04:59;;;;;;;54.47;48.77;;;17.10;94.30;;;;;;5031891;28;20686;-66
2023/09/10 02:07:25;;;;;;;49.97;44.70;;;17.10;94.30;;;;;;5047492;28;20033;-66
2023/09/10 02:09:51;;;;;;;50.30;45.07;;;17.10;94.40;;;;;;5033495;28;20064;-66
2023/09/10 02:12:16;;;;;;;49.60;44.30;;;17.10;94.50;;;;;;5044801;28;20045;-66
2023/09/10 02:14:48;;;;;;;49.70;44.37;;;17.00;94.60;;;;;;5046207;28;20295;-66
2023/09/10 02:17:14;;;;;;;54.80;49.13;;;17.10;94.70;;;;;;5044430;28;20808;-66
2023/09/10 02:19:40;;;;;;;50.83;45.40;;;17.00;94.70;;;;;;5046725;28;20621;-66
2023/09/10 02:22:06;;;;;;;49.87;44.57;;;17.00;94.80;;;;;;5042559;28;20326;-66
2023/09/10 02:24:31;;;;;;;51.77;46.30;;;17.00;95.00;;;;;;5026321;28;20033;-66
2023/09/10 02:26:57;;;;;;;50.07;44.77;;;17.00;95.00;;;;;;5048961;28;20090;-66
2023/09/10 02:29:23;;;;;;;51.23;45.80;;;17.00;95.10;;;;;;5050409;28;20055;-66
2023/09/10 02:31:48;;;;;;;49.17;43.93;;;17.00;95.10;;;;;;5046595;28;20447;-66
2023/09/10 02:34:14;;;;;;;54.83;49.10;;;17.00;95.20;;;;;;5030685;28;20055;-66
2023/09/10 02:36:40;;;;;;;53.50;47.73;;;17.00;95.10;;;;;;5046185;28;20055;-66
2023/09/10 02:39:05;;;;;;;57.70;51.67;;;17.00;95.10;;;;;;5082186;28;20137;-66
2023/09/10 02:41:31;;;;;;;53.80;48.10;;;16.90;95.00;;;;;;5029556;28;20037;-66
2023/09/10 02:43:57;;;;;;;47.93;43.03;;;16.90;95.00;;;;;;5033787;28;20037;-66
2023/09/10 02:46:25;;;;;;;50.47;45.17;;;16.90;95.20;;;;;;5047567;28;20483;-66
2023/09/10 02:48:50;;;;;;;52.27;46.57;;;16.90;95.20;;;;;;5044027;28;20350;-66
2023/09/10 02:51:16;;;;;;;48.10;42.00;;;16.90;95.30;;;;;;5028363;28;20276;-66
2023/09/10 02:53:42;;;;;;;44.87;40.17;;;16.90;95.40;;;;;;5039211;28;20489;-66
2023/09/10 02:56:07;;;;;;;48.23;43.07;;;16.80;95.40;;;;;;5042465;28;20175;-66
2023/09/10 02:58:33;;;;;;;47.47;42.40;;;16.80;95.50;;;;;;5039670;28;20095;-66
2023/09/10 03:01:03;;;;;;;44.63;40.00;;;16.80;95.40;;;;;;5044063;28;20037;-66
2023/09/10 03:03:30;;;;;;;43.33;38.73;;;16.80;95.50;;;;;;5034663;28;20454;-66
2023/09/10 03:05:55;;;;;;;45.80;40.93;;;16.70;95.40;;;;;;5032783;28;20378;-66
2023/09/10 03:08:21;;;;;;;43.77;39.07;;;16.70;95.50;;;;;;5050728;28;20756;-66
2023/09/10 03:10:47;;;;;;;44.10;39.33;;;16.70;95.50;;;;;;5058663;28;20045;-66
2023/09/10 03:13:12;;;;;;;44.77;40.07;;;16.70;95.60;;;;;;5029571;28;20063;-66
2023/09/10 03:15:38;;;;;;;42.83;38.13;;;16.70;95.70;;;;;;5048288;28;20493;-66
2023/09/10 03:18:04;;;;;;;43.03;38.57;;;16.70;95.70;;;;;;5034910;28;20041;-66
2023/09/10 03:20:29;;;;;;;54.33;49.27;;;16.70;95.70;;;;;;5043311;28;20444;-66
2023/09/10 03:22:59;;;;;;;48.17;43.07;;;16.70;95.80;;;;;;5026184;28;20050;-66
2023/09/10 03:25:25;;;;;;;47.97;42.97;;;16.70;96.00;;;;;;5044146;28;20055;-66
2023/09/10 03:27:50;;;;;;;47.23;42.50;;;16.70;95.90;;;;;;5046707;28;20335;-66
2023/09/10 03:30:17;;;;;;;44.10;39.27;;;16.70;95.90;;;;;;5045889;28;20746;-66
2023/09/10 03:32:43;;;;;;;39.77;35.47;;;16.70;95.90;;;;;;5029908;28;20464;-66
2023/09/10 03:35:11;;;;;;;40.70;36.40;;;16.70;95.90;;;;;;5066785;28;20279;-66
2023/09/10 03:37:36;;;;;;;37.47;33.50;;;16.70;95.90;;;;;;5048733;28;20041;-66
2023/09/10 03:40:05;;;;;;;39.67;35.47;;;16.60;95.90;;;;;;5040333;28;20298;-66
2023/09/10 03:42:31;;;;;;;41.37;37.07;;;16.60;95.90;;;;;;5041045;28;20695;-66
2023/09/10 03:44:57;;;;;;;38.60;34.47;;;16.60;96.00;;;;;;5034459;28;20280;-66
2023/09/10 03:47:22;;;;;;;37.97;34.00;;;16.60;96.10;;;;;;5039309;28;20044;-66
2023/09/10 03:49:48;;;;;;;40.97;36.70;;;16.60;96.00;;;;;;5046028;28;20484;-66
2023/09/10 03:52:19;;;;;;;40.97;36.07;;;16.60;96.00;;;;;;5041779;28;20038;-66
2023/09/10 03:54:44;;;;;;;40.43;36.27;;;16.60;95.90;;;;;;5066131;28;20048;-66
2023/09/10 03:57:10;;;;;;;41.00;36.70;;;16.50;95.90;;;;;;5045500;28;20272;-66
2023/09/10 03:59:36;;;;;;;39.40;34.77;;;16.50;96.00;;;;;;5051674;28;20047;-66
2023/09/10 04:02:02;;;;;;;42.93;38.37;;;16.50;96.00;;;;;;5045412;28;20550;-66
2023/09/10 04:04:28;;;;;;;44.57;39.77;;;16.50;96.00;;;;;;5080291;28;20045;-66
2023/09/10 04:06:54;;;;;;;41.90;37.50;;;16.50;96.10;;;;;;5037977;28;20041;-66
2023/09/10 04:09:20;;;;;;;41.90;37.37;;;16.40;96.10;;;;;;5032255;28;20307;-66
2023/09/10 04:11:45;;;;;;;41.73;37.33;;;16.40;96.10;;;;;;5016501;28;20184;-66
2023/09/10 04:14:11;;;;;;;42.93;37.90;;;16.40;96.10;;;;;;5038946;28;20386;-66
2023/09/10 04:16:37;;;;;;;42.07;37.73;;;16.40;96.10;;;;;;5049262;28;20086;-66
2023/09/10 04:19:02;;;;;;;42.37;37.77;;;16.40;96.10;;;;;;5025597;28;20048;-66
2023/09/10 04:21:28;;;;;;;43.60;39.00;;;16.30;96.20;;;;;;5044402;28;20421;-66
2023/09/10 04:23:54;;;;;;;43.33;38.73;;;16.40;96.20;;;;;;5044666;28;20451;-66
2023/09/10 04:26:19;;;;;;;46.30;40.87;;;16.40;96.20;;;;;;5041449;28;20668;-66
2023/09/10 04:28:45;;;;;;;42.73;37.80;;;16.40;96.30;;;;;;5047478;28;20409;-66
2023/09/10 04:31:13;;;;;;;45.83;39.80;;;16.30;96.20;;;;;;5045408;28;20110;-66
2023/09/10 04:33:39;;;;;;;48.87;41.73;;;16.30;96.10;;;;;;5030351;28;20062;-66
2023/09/10 04:36:05;;;;;;;50.00;44.60;;;16.30;96.10;;;;;;5046670;28;20742;-66
2023/09/10 04:38:30;;;;;;;44.07;39.33;;;16.30;96.20;;;;;;5046909;28;20446;-66
2023/09/10 04:40:56;;;;;;;43.03;38.33;;;16.30;96.30;;;;;;5050148;28;20043;-66
2023/09/10 04:43:22;;;;;;;43.17;38.47;;;16.20;96.30;;;;;;5041600;28;20084;-66
2023/09/10 04:45:48;;;;;;;48.40;43.20;;;16.20;96.30;;;;;;5037061;28;20045;-66
2023/09/10 04:48:14;;;;;;;47.63;40.60;;;16.20;96.40;;;;;;5062203;28;20128;-66
2023/09/10 04:50:40;;;;;;;41.50;35.40;;;16.20;96.40;;;;;;5044842;28;20037;-66
2023/09/10 04:53:06;;;;;;;45.13;38.77;;;16.20;96.40;;;;;;5044420;28;20052;-66
2023/09/10 04:55:31;;;;;;;42.87;38.27;;;16.20;96.40;;;;;;5040798;28;20280;-66
2023/09/10 04:57:57;;;;;;;43.10;37.60;;;16.20;96.50;;;;;;5044621;28;20053;-66
2023/09/10 05:00:23;;;;;;;44.20;38.03;;;16.20;96.50;;;;;;5024318;28;20175;-66
2023/09/10 05:02:48;;;;;;;44.90;40.43;;;16.20;96.50;;;;;;5030875;28;20520;-66
2023/09/10 05:05:14;;;;;;;41.50;37.03;;;16.20;96.50;;;;;;5028634;28;20041;-66
2023/09/10 05:07:40;;;;;;;48.63;43.33;;;16.20;96.60;;;;;;5050011;28;20051;-66
2023/09/10 05:10:06;;;;;;;39.40;34.63;;;16.30;96.60;;;;;;5038366;28;20484;-66
2023/09/10 05:12:32;;;;;;;39.90;35.63;;;16.30;96.50;;;;;;5033139;28;20144;-66
2023/09/10 05:14:58;;;;;;;42.10;37.50;;;16.20;96.50;;;;;;5038167;28;20840;-66
2023/09/10 05:17:23;;;;;;;41.70;35.67;;;16.30;96.40;;;;;;5042202;28;20124;-66
2023/09/10 05:19:50;;;;;;;40.83;35.77;;;16.30;96.50;;;;;;5046353;28;20070;-66
2023/09/10 05:22:16;;;;;;;42.47;37.17;;;16.30;96.60;;;;;;5025259;28;20057;-66
2023/09/10 05:24:42;;;;;;;42.33;36.40;;;16.30;96.60;;;;;;5035909;28;20291;-66
2023/09/10 05:27:07;;;;;;;46.00;40.93;;;16.40;96.70;;;;;;5045986;28;20041;-66
2023/09/10 05:29:33;;;;;;;44.50;39.70;;;16.40;96.70;;;;;;5040155;28;20041;-66
2023/09/10 05:31:59;;;;;;;47.17;41.50;;;16.50;96.70;;;;;;5030577;28;20043;-66
2023/09/10 05:34:24;;;;;;;47.47;40.63;;;16.60;96.80;;;;;;5029518;28;20029;-66
2023/09/10 05:36:50;;;;;;;43.00;37.63;;;16.60;96.80;;;;;;5045055;28;20037;-66
2023/09/10 05:39:16;;;;;;;49.97;41.13;;;16.70;96.80;;;;;;5046342;28;20053;-66
2023/09/10 05:41:42;;;;;;;46.47;40.53;;;16.70;96.90;;;;;;5045298;28;20049;-66
2023/09/10 05:44:07;;;;;;;48.03;40.83;;;16.80;96.80;;;;;;5035407;28;20037;-66
2023/09/10 05:46:33;;;;;;;45.33;39.10;;;16.80;96.80;;;;;;5035946;28;20041;-66
2023/09/10 05:48:59;;;;;;;43.60;38.27;;;16.90;96.90;;;;;;5039151;28;20635;-66
2023/09/10 05:51:25;;;;;;;46.43;40.00;;;17.00;96.90;;;;;;5047237;28;20033;-66
2023/09/10 05:53:50;;;;;;;47.17;42.20;;;17.00;96.90;;;;;;5040058;28;20814;-66
2023/09/10 05:56:16;;;;;;;43.77;39.17;;;17.10;96.80;;;;;;5042744;28;20106;-66
2023/09/10 05:58:42;;;;;;;46.40;40.87;;;17.20;96.90;;;;;;5039797;28;20052;-66
2023/09/10 06:01:08;;;;;;;43.57;38.90;;;17.20;96.80;;;;;;5039937;28;20604;-66
2023/09/10 06:03:34;;;;;;;48.93;43.63;;;17.30;96.80;;;;;;5040742;28;20280;-66
2023/09/10 06:06:01;;;;;;;44.43;39.47;;;17.40;96.90;;;;;;5029102;28;20037;-66
2023/09/10 06:08:29;;;;;;;45.63;40.67;;;17.50;97.00;;;;;;5028645;28;20044;-66
2023/09/10 06:10:55;;;;;;;46.97;41.87;;;17.50;96.90;;;;;;5043608;28;20284;-66
2023/09/10 06:13:21;;;;;;;49.77;42.63;;;17.60;97.00;;;;;;5042886;28;20763;-66
2023/09/10 06:15:46;;;;;;;49.93;44.53;;;17.70;96.80;;;;;;5045864;28;20282;-66
2023/09/10 06:18:12;;;;;;;48.43;42.50;;;17.70;96.70;;;;;;5049575;28;20041;-66
2023/09/10 06:20:38;;;;;;;46.47;41.37;;;17.80;96.80;;;;;;5038352;28;20072;-66
2023/09/10 06:23:04;;;;;;;51.13;43.73;;;17.90;96.70;;;;;;5045893;28;20394;-67
2023/09/10 06:25:29;;;;;;;52.13;43.67;;;18.00;96.60;;;;;;5042802;28;20124;-67
2023/09/10 06:27:55;;;;;;;49.77;44.37;;;18.10;96.60;;;;;;5040866;28;20338;-67
2023/09/10 06:30:21;;;;;;;48.67;42.53;;;18.20;96.50;;;;;;5046262;28;20439;-67
2023/09/10 06:32:49;;;;;;;49.90;44.37;;;18.20;96.30;;;;;;5049342;28;20032;-67
2023/09/10 06:35:15;;;;;;;47.73;42.53;;;18.30;96.10;;;;;;5057713;28;20064;-67
2023/09/10 06:37:42;;;;;;;47.57;40.70;;;18.40;96.00;;;;;;5030464;28;20378;-67
2023/09/10 06:40:09;;;;;;;44.50;39.67;;;18.50;95.80;;;;;;5043923;28;20037;-66
2023/09/10 06:42:35;;;;;;;45.60;40.73;;;18.60;95.60;;;;;;5029208;28;20167;-66
2023/09/10 06:45:00;;;;;;;44.17;38.60;;;18.60;95.50;;;;;;5044661;28;20511;-66
2023/09/10 06:47:27;;;;;;;45.57;40.70;;;18.70;95.20;;;;;;5035314;28;20041;-66
2023/09/10 06:49:53;;;;;;;45.70;40.40;;;18.80;95.20;;;;;;5035184;28;20045;-66
2023/09/10 06:52:18;;;;;;;47.30;42.07;;;18.80;94.90;;;;;;5038983;28;20033;-66
2023/09/10 06:54:46;;;;;;;45.17;39.93;;;18.90;94.80;;;;;;5041107;28;20466;-66
2023/09/10 06:57:13;;;;;;;44.17;38.60;;;19.00;94.70;;;;;;5042493;28;20034;-66
2023/09/10 06:59:39;;;;;;;44.33;39.60;;;19.10;94.60;;;;;;5054799;28;20041;-66
2023/09/10 07:02:06;;;;;;;48.87;43.63;;;19.20;94.60;;;;;;5046561;28;20048;-66
2023/09/10 07:04:31;;;;;;;45.77;40.77;;;19.30;94.40;;;;;;5030831;28;20507;-66
2023/09/10 07:06:57;;;;;;;46.10;40.93;;;19.40;94.20;;;;;;5026123;28;20061;-66
2023/09/10 07:09:24;;;;;;;47.53;42.47;;;19.50;94.10;;;;;;5043242;28;20053;-66
2023/09/10 07:11:50;;;;;;;49.70;44.43;;;19.60;93.70;;;;;;5067613;28;20137;-66
2023/09/10 07:14:17;;;;;;;46.90;41.90;;;19.70;93.60;;;;;;5026065;28;20077;-66
2023/09/10 07:16:43;;;;;;;46.67;41.57;;;19.80;93.50;;;;;;5040616;28;20623;-66
2023/09/10 07:19:08;;;;;;;46.67;41.77;;;20.00;93.20;;;;;;5029161;28;20045;-66
2023/09/10 07:21:34;;;;;;;45.73;40.80;;;20.10;93.00;;;;;;5049545;28;20463;-66
2023/09/10 07:24:02;;;;;;;46.87;41.90;;;20.20;92.60;;;;;;5032887;28;20045;-66
2023/09/10 07:26:28;;;;;;;54.97;49.70;;;20.20;91.90;;;;;;5048635;28;20042;-66
2023/09/10 07:28:54;;;;;;;46.97;42.23;;;20.30;91.90;;;;;;5030925;28;20041;-66
2023/09/10 07:31:19;;;;;;;51.93;46.83;;;20.40;91.50;;;;;;5044402;28;20485;-66
2023/09/10 07:33:45;;;;;;;53.60;48.23;;;20.40;91.60;;;;;;5030133;28;20044;-66
2023/09/10 07:36:11;;;;;;;50.57;45.57;;;20.50;91.40;;;;;;5049798;28;20033;-66
2023/09/10 07:38:37;;;;;;;51.30;46.23;;;20.60;91.40;;;;;;5040284;28;20037;-66
2023/09/10 07:41:03;;;;;;;53.03;47.80;;;20.70;91.40;;;;;;5048754;28;20707;-66
2023/09/10 07:43:28;;;;;;;50.60;45.43;;;20.90;91.10;;;;;;5048203;28;20041;-66
2023/09/10 07:45:54;;;;;;;51.27;46.20;;;20.90;90.50;;;;;;5030221;28;20036;-66
2023/09/10 07:48:20;;;;;;;51.60;46.40;;;21.00;90.20;;;;;;5033462;28;20040;-66
2023/09/10 07:51:00;;;;;;;51.30;46.23;;;21.10;90.20;;;;;;5033445;28;20057;-66
2023/09/10 07:53:25;;;;;;;54.90;49.37;;;21.30;90.20;;;;;;5044705;28;20037;-66
2023/09/10 07:55:51;;;;;;;55.67;50.50;;;21.40;90.00;;;;;;5046994;28;20048;-66
2023/09/10 07:58:18;;;;;;;53.57;48.23;;;21.50;89.50;;;;;;5048001;28;20491;-66
2023/09/10 08:00:44;;;;;;;57.87;52.50;;;21.60;89.40;;;;;;5030726;28;20398;-66
2023/09/10 08:03:09;;;;;;;53.60;48.33;;;21.70;89.30;;;;;;5047610;28;20090;-66
2023/09/10 08:05:35;;;;;;;58.43;53.03;;;21.80;88.90;;;;;;5038048;28;20451;-66
2023/09/10 08:08:04;;;;;;;61.93;56.67;;;21.90;88.60;;;;;;5032098;28;20068;-67
2023/09/10 08:10:30;;;;;;;58.57;53.47;;;22.10;88.70;;;;;;5047507;28;20429;-67
2023/09/10 08:12:56;;;;;;;57.57;52.37;;;22.20;87.80;;;;;;5045905;28;20041;-67
2023/09/10 08:15:22;;;;;;;60.73;55.40;;;22.30;87.80;;;;;;5048653;28;20025;-67
2023/09/10 08:17:51;;;;;;;55.50;50.57;;;22.40;87.90;;;;;;5032247;28;20047;-67
2023/09/10 08:20:17;;;;;;;65.67;60.37;;;22.50;87.90;;;;;;5040806;28;20409;-67
2023/09/10 08:22:45;;;;;;;57.93;53.13;;;22.70;87.30;;;;;;5042510;28;20053;-67
2023/09/10 08:25:11;;;;;;;57.63;52.93;;;22.80;87.20;;;;;;5057197;28;20074;-67
2023/09/10 08:27:37;;;;;;;59.37;54.50;;;23.00;86.80;;;;;;5043938;28;20504;-67
2023/09/10 08:30:05;;;;;;;55.80;51.13;;;23.10;86.10;;;;;;5040209;28;20056;-66
2023/09/10 08:32:35;;;;;;;56.30;51.67;;;23.20;85.90;;;;;;5042840;28;20033;-67
2023/09/10 08:35:01;;;;;;;56.53;51.83;;;23.40;85.40;;;;;;5042773;28;20543;-67
2023/09/10 08:37:27;;;;;;;58.63;53.87;;;23.50;84.70;;;;;;5050548;28;20047;-67
2023/09/10 08:39:54;;;;;;;52.77;48.50;;;23.70;84.20;;;;;;5050980;28;20044;-67
2023/09/10 08:42:41;;;;;;;59.77;55.13;;;23.80;83.90;;;;;;5050268;28;20040;-67
2023/09/10 08:45:10;;;;;;;64.93;60.23;;;23.80;82.70;;;;;;5048957;28;20057;-67
2023/09/10 08:47:40;;;;;;;65.17;60.23;;;23.90;82.60;;;;;;5048571;28;20453;-67
2023/09/10 08:50:11;;;;;;;64.93;60.13;;;24.00;81.80;;;;;;5045797;28;20037;-67
2023/09/10 08:52:39;;;;;;;67.80;62.73;;;24.10;81.40;;;;;;5037667;28;20038;-67
2023/09/10 08:55:08;;;;;;;70.97;65.97;;;24.10;81.10;;;;;;5042378;28;20047;-67
2023/09/10 08:57:39;;;;;;;67.37;62.40;;;24.20;81.00;;;;;;5046871;28;20055;-67
2023/09/10 09:00:10;;;;;;;70.10;65.00;;;24.30;80.90;;;;;;5023166;28;20423;-67
2023/09/10 09:02:37;;;;;;;56.47;52.23;;;24.50;80.40;;;;;;5029093;28;20115;-67
2023/09/10 09:05:04;;;;;;;55.70;51.67;;;24.60;80.30;;;;;;5037535;28;20499;-67
2023/09/10 09:07:36;;;;;;;54.87;50.60;;;24.70;79.70;;;;;;5030310;28;20049;-67
2023/09/10 09:10:07;;;;;;;54.27;50.23;;;24.80;78.70;;;;;;5039931;28;20052;-67
2023/09/10 09:12:35;;;;;;;58.07;53.77;;;24.90;78.40;;;;;;5046292;28;20116;-67
2023/09/10 09:15:03;;;;;;;63.50;57.90;;;25.00;77.70;;;;;;5027193;28;20061;-67
2023/09/10 09:17:29;;;;;;;60.53;56.20;;;25.10;77.80;;;;;;5046045;28;20037;-67
2023/09/10 09:19:57;;;;;;;58.07;54.03;;;25.20;78.20;;;;;;5040213;28;20037;-67
2023/09/10 09:22:28;;;;;;;54.93;50.93;;;25.30;77.50;;;;;;5028501;28;20061;-67
2023/09/10 09:24:55;;;;;;;58.83;54.67;;;25.40;77.50;;;;;;5056782;28;20056;-67
2023/09/10 09:27:24;;;;;;;51.53;47.83;;;25.60;77.70;;;;;;5044913;28;20551;-68
2023/09/10 09:29:51;;;;;;;55.93;52.07;;;25.70;77.10;;;;;;5046921;28;20133;-68
2023/09/10 09:32:16;;;;;;;54.50;50.67;;;25.90;76.60;;;;;;5016362;28;20409;-68
2023/09/10 09:34:42;;;;;;;50.73;47.13;;;26.00;76.40;;;;;;5037860;28;20035;-67
2023/09/10 09:37:08;;;;;;;43.40;40.40;;;26.10;75.10;;;;;;5031781;28;20559;-68
2023/09/10 09:39:34;;;;;;;58.03;53.87;;;26.20;74.00;;;;;;5026785;28;20037;-68
2023/09/10 09:42:00;;;;;;;53.10;49.20;;;26.30;74.60;;;;;;5028523;28;20048;-68
2023/09/10 09:44:27;;;;;;;62.00;57.73;;;26.30;73.40;;;;;;5040635;28;20045;-68
2023/09/10 09:46:56;;;;;;;60.17;56.30;;;26.40;73.20;;;;;;5045989;28;20051;-68
2023/09/10 09:49:23;;;;;;;52.47;48.67;;;26.50;72.80;;;;;;5048554;28;20037;-68
2023/09/10 09:51:48;;;;;;;59.83;55.63;;;26.60;72.90;;;;;;5033184;28;20057;-68
2023/09/10 09:54:14;;;;;;;61.67;57.60;;;26.60;72.70;;;;;;5048278;28;20121;-68
2023/09/10 09:56:43;;;;;;;59.43;55.43;;;26.70;72.30;;;;;;5047490;28;20033;-68
2023/09/10 09:59:10;;;;;;;63.33;58.93;;;26.80;72.00;;;;;;5029689;28;20053;-68
2023/09/10 10:01:38;;;;;;;65.57;61.33;;;26.90;71.90;;;;;;5017805;28;20053;-68
2023/09/10 10:04:04;;;;;;;51.47;47.87;;;26.90;70.70;;;;;;5034852;28;20047;-68
2023/09/10 10:06:31;;;;;;;54.67;50.80;;;27.00;71.50;;;;;;5040530;28;20409;-68
2023/09/10 10:08:57;;;;;;;64.10;60.03;;;27.10;71.00;;;;;;5022872;28;20068;-68
2023/09/10 10:11:31;;;;;;;60.40;56.07;;;27.20;71.00;;;;;;5024751;28;20470;-68
2023/09/10 10:14:00;;;;;;;61.55;57.53;;;27.30;70.80;;;;;;5030655;28;20045;-68
2023/09/10 10:16:28;;;;;;;64.80;60.70;;;27.30;71.00;;;;;;5030888;28;20052;-68
2023/09/10 10:18:55;;;;;;;58.20;54.30;;;27.40;71.00;;;;;;5044102;28;20047;-68
2023/09/10 10:21:24;;;;;;;49.50;44.73;;;27.50;70.10;;;;;;5028213;28;20048;-68
2023/09/10 10:23:56;;;;;;;52.73;48.90;;;27.60;70.10;;;;;;5072429;28;20417;-68
2023/09/10 10:26:22;;;;;;;50.63;46.80;;;27.70;69.30;;;;;;5045277;28;20037;-68
2023/09/10 10:28:49;;;;;;;59.37;55.13;;;27.70;69.50;;;;;;5040755;28;20455;-68
2023/09/10 10:31:17;;;;;;;46.10;42.80;;;27.80;69.20;;;;;;5044972;28;20041;-68
2023/09/10 10:33:50;;;;;;;51.13;47.70;;;27.80;68.70;;;;;;5042913;28;20124;-68
2023/09/10 10:36:40;;;;;;;48.03;44.70;;;27.90;68.10;;;;;;5040692;28;20041;-68
2023/09/10 10:39:10;;;;;;;49.40;45.80;;;28.00;68.20;;;;;;5049190;28;20094;-68
2023/09/10 10:41:42;;;;;;;48.47;45.27;;;28.00;68.10;;;;;;5036026;28;20048;-68
2023/09/10 10:44:23;;;;;;;54.63;51.00;;;28.10;68.00;;;;;;5045215;28;20400;-68
2023/09/10 10:46:59;;;;;;;43.53;40.73;;;28.30;67.30;;;;;;5050393;28;20400;-68
2023/09/10 10:49:28;;;;;;;52.53;49.17;;;28.40;67.70;;;;;;5074691;28;20501;-68
2023/09/10 10:51:59;;;;;;;50.73;47.40;;;28.60;67.40;;;;;;5046210;28;20496;-68
2023/09/10 10:54:26;;;;;;;42.60;39.77;;;28.70;67.50;;;;;;5034878;28;20045;-68
2023/09/10 10:56:52;;;;;;;44.40;41.53;;;28.70;66.50;;;;;;5046271;28;20095;-68
2023/09/10 10:59:18;;;;;;;48.97;46.00;;;28.80;66.20;;;;;;5028555;28;20037;-68
2023/09/10 11:02:10;;;;;;;55.90;52.53;;;28.80;65.40;;;;;;5040927;28;20127;-68
2023/09/10 11:04:35;;;;;;;42.30;39.40;;;28.80;64.60;;;;;;5033336;28;20524;-68
2023/09/10 11:07:20;;;;;;;48.27;44.93;;;28.80;64.80;;;;;;5046554;28;20037;-68
2023/09/10 11:09:47;;;;;;;50.28;47.00;;;28.90;63.00;;;;;;5054060;28;20529;-68
2023/09/10 11:12:14;;;;;;;53.83;50.53;;;28.90;64.00;;;;;;5046364;28;20497;-68
2023/09/10 11:14:58;;;;;;;64.63;60.53;;;28.90;64.40;;;;;;5037777;28;20491;-68
2023/09/10 11:17:35;;;;;;;38.53;35.72;;;28.80;62.70;;;;;;5068250;28;20087;-68
2023/09/10 11:20:03;;;;;;;54.17;50.87;;;28.80;64.50;;;;;;5026738;28;20037;-68
2023/09/10 11:23:05;;;;;;;57.83;54.23;;;28.90;64.60;;;;;;5046645;28;20474;-68
2023/09/10 11:25:31;;;;;;;53.67;50.17;;;29.00;63.30;;;;;;5041363;28;20048;-68
2023/09/10 11:27:57;;;;;;;49.77;46.57;;;29.10;64.30;;;;;;5038815;28;20053;-68
2023/09/10 11:30:23;;;;;;;49.83;46.43;;;29.20;64.30;;;;;;5043239;28;20051;-68
2023/09/10 11:33:09;;;;;;;48.87;45.60;;;29.20;64.40;;;;;;5041673;28;20421;-68
2023/09/10 11:35:37;;;;;;;49.00;45.67;;;29.40;64.00;;;;;;5039480;28;20042;-69
2023/09/10 11:38:03;;;;;;;57.73;54.27;;;29.50;64.00;;;;;;5048654;28;20144;-69
2023/09/10 11:40:28;;;;;;;55.03;51.67;;;29.50;63.40;;;;;;5073369;28;20456;-69
2023/09/10 11:42:54;;;;;;;62.97;59.20;;;29.60;63.70;;;;;;5048935;28;20094;-69
2023/09/10 11:45:21;;;;;;;65.47;61.60;;;29.60;63.10;;;;;;5048751;28;20033;-69
2023/09/10 11:47:48;;;;;;;64.77;60.77;;;29.60;62.90;;;;;;5055002;28;20076;-69
2023/09/10 11:50:21;;;;;;;62.30;58.47;;;29.70;62.50;;;;;;5050902;28;20097;-69
2023/09/10 11:52:47;;;;;;;68.03;64.17;;;29.70;62.50;;;;;;5044711;28;20094;-69
2023/09/10 11:55:14;;;;;;;61.77;58.00;;;29.70;62.70;;;;;;5042848;28;20068;-69
2023/09/10 11:57:40;;;;;;;64.20;60.17;;;29.80;62.00;;;;;;5047178;28;20033;-69
2023/09/10 12:00:06;;;;;;;61.00;57.37;;;29.70;61.70;;;;;;5028478;28;20489;-69
2023/09/10 12:02:32;;;;;;;66.20;62.07;;;29.70;61.30;;;;;;5045925;28;20044;-69
2023/09/10 12:05:05;;;;;;;52.17;48.83;;;29.70;61.40;;;;;;5028982;28;20041;-69
2023/09/10 12:07:31;;;;;;;52.80;49.67;;;29.70;61.50;;;;;;5026188;28;20591;-69
2023/09/10 12:09:57;;;;;;;69.27;65.07;;;29.70;62.00;;;;;;5043920;28;20074;-69
2023/09/10 12:12:28;;;;;;;58.37;54.63;;;29.80;61.70;;;;;;5044736;28;20504;-69
2023/09/10 12:14:55;;;;;;;61.60;57.47;;;29.90;61.70;;;;;;5041990;28;20048;-68
2023/09/10 12:17:22;;;;;;;56.80;53.17;;;30.10;61.70;;;;;;5027098;28;20040;-68
2023/09/10 12:19:49;;;;;;;67.67;63.60;;;30.10;61.00;;;;;;5030233;28;20045;-68
2023/09/10 12:22:19;;;;;;;58.72;55.00;;;30.10;61.00;;;;;;5029076;28;20080;-68
2023/09/10 12:24:45;;;;;;;60.53;55.93;;;30.10;60.70;;;;;;5044536;28;20060;-69
2023/09/10 12:27:13;;;;;;;65.80;61.35;;;30.10;60.40;;;;;;5044620;28;20037;-69
2023/09/10 12:29:42;;;;;;;57.93;53.93;;;30.10;60.60;;;;;;5043446;28;20041;-68